sensor_id;sensor_type;location;lat;lon;timestamp;P1;durP1;ratioP1;P2;durP2;ratioP2
33738;SDS011;20063;51.730;11.110;2023-07-31T00:01:11;12.00;;;1.80;;
33738;SDS011;20063;51.730;11.110;2023-07-31T00:03:37;7.78;;;2.47;;
33738;SDS011;20063;51.730;11.110;2023-07-31T00:06:02;5.35;;;2.13;;
33738;SDS011;20063;51.730;11.110;2023-07-31T00:08:28;9.82;;;2.42;;
33738;SDS011;20063;51.730;11.110;2023-07-31T00:10:53;7.75;;;1.98;;
33738;SDS011;20063;51.730;11.110;2023-07-31T00:13:19;17.42;;;2.58;;
33738;SDS011;20063;51.730;11.110;2023-07-31T00:15:45;7.82;;;1.52;;
33738;SDS011;20063;51.730;11.110;2023-07-31T00:18:10;4.72;;;2.03;;
33738;SDS011;20063;51.730;11.110;2023-07-31T00:20:36;6.18;;;2.03;;
33738;SDS011;20063;51.730;11.110;2023-07-31T00:23:01;7.43;;;2.15;;
33738;SDS011;20063;51.730;11.110;2023-07-31T00:25:27;11.38;;;2.55;;
33738;SDS011;20063;51.730;11.110;2023-07-31T00:27:52;10.45;;;2.28;;
33738;SDS011;20063;51.730;11.110;2023-07-31T00:30:18;21.90;;;2.88;;
33738;SDS011;20063;51.730;11.110;2023-07-31T00:32:43;14.40;;;2.38;;
33738;SDS011;20063;51.730;11.110;2023-07-31T00:35:09;9.85;;;2.15;;
33738;SDS011;20063;51.730;11.110;2023-07-31T00:37:35;14.38;;;2.47;;
33738;SDS011;20063;51.730;11.110;2023-07-31T00:40:00;7.45;;;1.63;;
33738;SDS011;20063;51.730;11.110;2023-07-31T00:42:28;7.32;;;2.00;;
33738;SDS011;20063;51.730;11.110;2023-07-31T00:44:53;6.40;;;2.00;;
33738;SDS011;20063;51.730;11.110;2023-07-31T00:47:19;5.88;;;1.80;;
33738;SDS011;20063;51.730;11.110;2023-07-31T00:49:48;7.13;;;2.00;;
33738;SDS011;20063;51.730;11.110;2023-07-31T00:52:14;7.78;;;1.70;;
33738;SDS011;20063;51.730;11.110;2023-07-31T00:54:39;5.78;;;1.85;;
33738;SDS011;20063;51.730;11.110;2023-07-31T00:57:05;10.25;;;1.73;;
33738;SDS011;20063;51.730;11.110;2023-07-31T00:59:33;8.50;;;2.05;;
33738;SDS011;20063;51.730;11.110;2023-07-31T01:02:02;4.05;;;1.77;;
33738;SDS011;20063;51.730;11.110;2023-07-31T01:04:28;6.55;;;1.52;;
33738;SDS011;20063;51.730;11.110;2023-07-31T01:09:48;5.10;;;1.90;;
33738;SDS011;20063;51.730;11.110;2023-07-31T01:12:25;6.60;;;1.42;;
33738;SDS011;20063;51.730;11.110;2023-07-31T01:17:26;3.88;;;1.30;;
33738;SDS011;20063;51.730;11.110;2023-07-31T01:19:51;5.30;;;1.40;;
33738;SDS011;20063;51.730;11.110;2023-07-31T01:28:16;7.78;;;1.20;;
33738;SDS011;20063;51.730;11.110;2023-07-31T01:30:48;1.25;;;1.00;;
33738;SDS011;20063;51.730;11.110;2023-07-31T01:33:17;1.85;;;0.70;;
33738;SDS011;20063;51.730;11.110;2023-07-31T01:35:44;4.13;;;1.33;;
33738;SDS011;20063;51.730;11.110;2023-07-31T01:38:11;2.60;;;1.10;;
33738;SDS011;20063;51.730;11.110;2023-07-31T01:40:37;2.97;;;1.10;;
33738;SDS011;20063;51.730;11.110;2023-07-31T01:43:02;4.03;;;1.00;;
33738;SDS011;20063;51.730;11.110;2023-07-31T01:45:28;2.90;;;0.90;;
33738;SDS011;20063;51.730;11.110;2023-07-31T01:47:57;1.50;;;0.88;;
33738;SDS011;20063;51.730;11.110;2023-07-31T01:50:22;4.15;;;1.35;;
33738;SDS011;20063;51.730;11.110;2023-07-31T01:52:48;1.77;;;1.30;;
33738;SDS011;20063;51.730;11.110;2023-07-31T01:55:13;3.85;;;1.30;;
33738;SDS011;20063;51.730;11.110;2023-07-31T01:57:39;3.17;;;1.27;;
33738;SDS011;20063;51.730;11.110;2023-07-31T02:00:05;4.25;;;1.30;;
33738;SDS011;20063;51.730;11.110;2023-07-31T02:02:31;2.78;;;1.10;;
33738;SDS011;20063;51.730;11.110;2023-07-31T02:04:57;6.82;;;1.83;;
33738;SDS011;20063;51.730;11.110;2023-07-31T02:07:22;2.53;;;1.10;;
33738;SDS011;20063;51.730;11.110;2023-07-31T02:09:48;4.32;;;1.40;;
33738;SDS011;20063;51.730;11.110;2023-07-31T02:12:15;4.30;;;1.60;;
33738;SDS011;20063;51.730;11.110;2023-07-31T02:14:42;5.22;;;1.30;;
33738;SDS011;20063;51.730;11.110;2023-07-31T02:17:07;3.22;;;1.70;;
33738;SDS011;20063;51.730;11.110;2023-07-31T02:19:33;5.50;;;1.48;;
33738;SDS011;20063;51.730;11.110;2023-07-31T02:21:58;2.65;;;1.23;;
33738;SDS011;20063;51.730;11.110;2023-07-31T02:24:24;4.38;;;1.60;;
33738;SDS011;20063;51.730;11.110;2023-07-31T02:26:50;5.20;;;1.58;;
33738;SDS011;20063;51.730;11.110;2023-07-31T02:29:15;2.58;;;1.48;;
33738;SDS011;20063;51.730;11.110;2023-07-31T02:31:41;2.83;;;1.50;;
33738;SDS011;20063;51.730;11.110;2023-07-31T02:34:06;5.95;;;1.67;;
33738;SDS011;20063;51.730;11.110;2023-07-31T02:36:32;5.45;;;1.60;;
33738;SDS011;20063;51.730;11.110;2023-07-31T02:38:58;8.50;;;1.40;;
33738;SDS011;20063;51.730;11.110;2023-07-31T02:41:23;5.55;;;1.85;;
33738;SDS011;20063;51.730;11.110;2023-07-31T02:43:49;5.88;;;1.98;;
33738;SDS011;20063;51.730;11.110;2023-07-31T02:46:14;7.22;;;2.10;;
33738;SDS011;20063;51.730;11.110;2023-07-31T02:48:40;5.20;;;1.85;;
33738;SDS011;20063;51.730;11.110;2023-07-31T02:51:05;5.30;;;2.20;;
33738;SDS011;20063;51.730;11.110;2023-07-31T02:53:31;5.95;;;2.17;;
33738;SDS011;20063;51.730;11.110;2023-07-31T02:55:57;10.02;;;2.65;;
33738;SDS011;20063;51.730;11.110;2023-07-31T02:58:22;7.22;;;2.35;;
33738;SDS011;20063;51.730;11.110;2023-07-31T03:00:51;9.63;;;2.97;;
33738;SDS011;20063;51.730;11.110;2023-07-31T03:03:29;11.32;;;2.20;;
33738;SDS011;20063;51.730;11.110;2023-07-31T03:05:55;7.00;;;2.25;;
33738;SDS011;20063;51.730;11.110;2023-07-31T03:08:20;10.20;;;3.30;;
33738;SDS011;20063;51.730;11.110;2023-07-31T03:10:46;3.90;;;2.17;;
33738;SDS011;20063;51.730;11.110;2023-07-31T03:13:12;4.57;;;2.00;;
33738;SDS011;20063;51.730;11.110;2023-07-31T03:15:37;11.18;;;2.83;;
33738;SDS011;20063;51.730;11.110;2023-07-31T03:18:03;9.60;;;2.28;;
33738;SDS011;20063;51.730;11.110;2023-07-31T03:20:28;5.75;;;2.28;;
33738;SDS011;20063;51.730;11.110;2023-07-31T03:22:54;7.65;;;2.70;;
33738;SDS011;20063;51.730;11.110;2023-07-31T03:25:19;9.07;;;2.42;;
33738;SDS011;20063;51.730;11.110;2023-07-31T03:27:45;9.02;;;2.42;;
33738;SDS011;20063;51.730;11.110;2023-07-31T03:30:12;8.18;;;2.35;;
33738;SDS011;20063;51.730;11.110;2023-07-31T03:32:37;7.00;;;2.80;;
33738;SDS011;20063;51.730;11.110;2023-07-31T03:35:03;8.35;;;3.47;;
33738;SDS011;20063;51.730;11.110;2023-07-31T03:37:30;6.85;;;2.80;;
33738;SDS011;20063;51.730;11.110;2023-07-31T03:39:56;9.88;;;2.80;;
33738;SDS011;20063;51.730;11.110;2023-07-31T03:42:22;13.57;;;2.60;;
33738;SDS011;20063;51.730;11.110;2023-07-31T03:44:47;8.93;;;2.83;;
33738;SDS011;20063;51.730;11.110;2023-07-31T03:47:13;14.60;;;3.25;;
33738;SDS011;20063;51.730;11.110;2023-07-31T03:49:39;9.45;;;2.72;;
33738;SDS011;20063;51.730;11.110;2023-07-31T03:52:07;13.15;;;3.03;;
33738;SDS011;20063;51.730;11.110;2023-07-31T03:54:33;5.35;;;2.50;;
33738;SDS011;20063;51.730;11.110;2023-07-31T03:56:58;8.73;;;2.75;;
33738;SDS011;20063;51.730;11.110;2023-07-31T03:59:24;9.93;;;3.10;;
33738;SDS011;20063;51.730;11.110;2023-07-31T04:01:52;8.88;;;2.58;;
33738;SDS011;20063;51.730;11.110;2023-07-31T04:04:18;6.72;;;2.30;;
33738;SDS011;20063;51.730;11.110;2023-07-31T04:06:44;7.97;;;2.53;;
33738;SDS011;20063;51.730;11.110;2023-07-31T04:09:10;6.68;;;2.17;;
33738;SDS011;20063;51.730;11.110;2023-07-31T04:11:36;8.02;;;2.67;;
33738;SDS011;20063;51.730;11.110;2023-07-31T04:14:01;5.53;;;2.20;;
33738;SDS011;20063;51.730;11.110;2023-07-31T04:16:27;6.20;;;1.95;;
33738;SDS011;20063;51.730;11.110;2023-07-31T04:18:52;8.98;;;3.22;;
33738;SDS011;20063;51.730;11.110;2023-07-31T04:21:18;4.43;;;1.80;;
33738;SDS011;20063;51.730;11.110;2023-07-31T04:23:44;4.20;;;1.92;;
33738;SDS011;20063;51.730;11.110;2023-07-31T04:26:09;2.28;;;1.70;;
33738;SDS011;20063;51.730;11.110;2023-07-31T04:28:35;2.47;;;1.60;;
33738;SDS011;20063;51.730;11.110;2023-07-31T04:31:00;4.05;;;1.80;;
33738;SDS011;20063;51.730;11.110;2023-07-31T04:33:26;5.68;;;2.08;;
33738;SDS011;20063;51.730;11.110;2023-07-31T04:35:52;3.13;;;1.73;;
33738;SDS011;20063;51.730;11.110;2023-07-31T04:38:22;2.95;;;1.63;;
33738;SDS011;20063;51.730;11.110;2023-07-31T04:40:47;3.78;;;1.92;;
33738;SDS011;20063;51.730;11.110;2023-07-31T04:43:13;4.40;;;2.30;;
33738;SDS011;20063;51.730;11.110;2023-07-31T04:45:39;4.93;;;1.95;;
33738;SDS011;20063;51.730;11.110;2023-07-31T04:48:07;4.18;;;2.00;;
33738;SDS011;20063;51.730;11.110;2023-07-31T04:50:32;5.22;;;2.42;;
33738;SDS011;20063;51.730;11.110;2023-07-31T04:52:58;5.60;;;2.85;;
33738;SDS011;20063;51.730;11.110;2023-07-31T04:55:23;5.97;;;2.58;;
33738;SDS011;20063;51.730;11.110;2023-07-31T04:57:49;6.97;;;2.15;;
33738;SDS011;20063;51.730;11.110;2023-07-31T05:00:17;8.68;;;2.58;;
33738;SDS011;20063;51.730;11.110;2023-07-31T05:02:43;8.23;;;2.40;;
33738;SDS011;20063;51.730;11.110;2023-07-31T05:05:09;12.65;;;3.05;;
33738;SDS011;20063;51.730;11.110;2023-07-31T05:07:34;7.40;;;2.67;;
33738;SDS011;20063;51.730;11.110;2023-07-31T05:10:00;11.95;;;3.55;;
33738;SDS011;20063;51.730;11.110;2023-07-31T05:12:25;5.18;;;2.78;;
33738;SDS011;20063;51.730;11.110;2023-07-31T05:14:51;8.48;;;3.58;;
33738;SDS011;20063;51.730;11.110;2023-07-31T05:17:16;7.55;;;3.33;;
33738;SDS011;20063;51.730;11.110;2023-07-31T05:19:42;11.38;;;3.35;;
33738;SDS011;20063;51.730;11.110;2023-07-31T05:22:08;8.07;;;3.55;;
33738;SDS011;20063;51.730;11.110;2023-07-31T05:24:33;9.52;;;3.53;;
33738;SDS011;20063;51.730;11.110;2023-07-31T05:26:59;5.93;;;3.28;;
33738;SDS011;20063;51.730;11.110;2023-07-31T05:29:24;9.50;;;3.70;;
33738;SDS011;20063;51.730;11.110;2023-07-31T05:31:50;10.23;;;3.17;;
33738;SDS011;20063;51.730;11.110;2023-07-31T05:34:16;10.18;;;3.65;;
33738;SDS011;20063;51.730;11.110;2023-07-31T05:36:41;13.40;;;3.10;;
33738;SDS011;20063;51.730;11.110;2023-07-31T05:39:07;10.48;;;3.53;;
33738;SDS011;20063;51.730;11.110;2023-07-31T05:41:33;6.45;;;3.35;;
33738;SDS011;20063;51.730;11.110;2023-07-31T05:44:00;13.05;;;3.53;;
33738;SDS011;20063;51.730;11.110;2023-07-31T05:46:26;11.00;;;3.35;;
33738;SDS011;20063;51.730;11.110;2023-07-31T05:48:51;5.45;;;3.08;;
33738;SDS011;20063;51.730;11.110;2023-07-31T05:51:17;8.88;;;3.47;;
33738;SDS011;20063;51.730;11.110;2023-07-31T05:53:42;9.55;;;3.53;;
33738;SDS011;20063;51.730;11.110;2023-07-31T05:56:08;7.93;;;3.58;;
33738;SDS011;20063;51.730;11.110;2023-07-31T05:58:34;10.35;;;4.47;;
33738;SDS011;20063;51.730;11.110;2023-07-31T06:01:02;9.25;;;2.95;;
33738;SDS011;20063;51.730;11.110;2023-07-31T06:03:28;6.03;;;3.20;;
33738;SDS011;20063;51.730;11.110;2023-07-31T06:05:53;12.75;;;3.50;;
33738;SDS011;20063;51.730;11.110;2023-07-31T06:08:19;9.73;;;3.70;;
33738;SDS011;20063;51.730;11.110;2023-07-31T06:10:48;5.95;;;3.28;;
33738;SDS011;20063;51.730;11.110;2023-07-31T06:13:13;9.00;;;2.83;;
33738;SDS011;20063;51.730;11.110;2023-07-31T06:15:39;7.90;;;3.38;;
33738;SDS011;20063;51.730;11.110;2023-07-31T06:18:04;6.78;;;3.03;;
33738;SDS011;20063;51.730;11.110;2023-07-31T06:20:32;12.30;;;3.63;;
33738;SDS011;20063;51.730;11.110;2023-07-31T06:23:00;6.45;;;2.92;;
33738;SDS011;20063;51.730;11.110;2023-07-31T06:25:25;10.38;;;3.00;;
33738;SDS011;20063;51.730;11.110;2023-07-31T06:27:51;7.05;;;3.03;;
33738;SDS011;20063;51.730;11.110;2023-07-31T06:30:16;7.30;;;2.95;;
33738;SDS011;20063;51.730;11.110;2023-07-31T06:32:42;6.68;;;3.40;;
33738;SDS011;20063;51.730;11.110;2023-07-31T06:35:08;9.20;;;2.78;;
33738;SDS011;20063;51.730;11.110;2023-07-31T06:37:34;9.02;;;3.17;;
33738;SDS011;20063;51.730;11.110;2023-07-31T06:39:59;7.65;;;3.40;;
33738;SDS011;20063;51.730;11.110;2023-07-31T06:42:25;11.60;;;3.47;;
33738;SDS011;20063;51.730;11.110;2023-07-31T06:44:50;8.23;;;3.10;;
33738;SDS011;20063;51.730;11.110;2023-07-31T06:47:16;6.03;;;2.97;;
33738;SDS011;20063;51.730;11.110;2023-07-31T06:49:42;8.05;;;3.28;;
33738;SDS011;20063;51.730;11.110;2023-07-31T06:52:07;11.30;;;3.28;;
33738;SDS011;20063;51.730;11.110;2023-07-31T06:54:33;7.80;;;2.80;;
33738;SDS011;20063;51.730;11.110;2023-07-31T06:56:58;12.45;;;3.35;;
33738;SDS011;20063;51.730;11.110;2023-07-31T06:59:24;10.77;;;3.50;;
33738;SDS011;20063;51.730;11.110;2023-07-31T07:01:49;6.10;;;3.05;;
33738;SDS011;20063;51.730;11.110;2023-07-31T07:04:15;12.32;;;3.92;;
33738;SDS011;20063;51.730;11.110;2023-07-31T07:06:41;9.25;;;3.08;;
33738;SDS011;20063;51.730;11.110;2023-07-31T07:09:07;7.38;;;3.05;;
33738;SDS011;20063;51.730;11.110;2023-07-31T07:11:33;8.07;;;3.55;;
33738;SDS011;20063;51.730;11.110;2023-07-31T07:13:59;19.02;;;3.80;;
33738;SDS011;20063;51.730;11.110;2023-07-31T07:16:28;9.27;;;3.38;;
33738;SDS011;20063;51.730;11.110;2023-07-31T07:18:54;4.78;;;2.88;;
33738;SDS011;20063;51.730;11.110;2023-07-31T07:21:19;9.20;;;2.80;;
33738;SDS011;20063;51.730;11.110;2023-07-31T07:23:45;10.25;;;3.63;;
33738;SDS011;20063;51.730;11.110;2023-07-31T07:26:10;5.78;;;3.05;;
33738;SDS011;20063;51.730;11.110;2023-07-31T07:28:36;8.98;;;3.28;;
33738;SDS011;20063;51.730;11.110;2023-07-31T07:31:05;8.25;;;3.55;;
33738;SDS011;20063;51.730;11.110;2023-07-31T07:33:31;8.27;;;3.35;;
33738;SDS011;20063;51.730;11.110;2023-07-31T07:35:59;11.63;;;3.25;;
33738;SDS011;20063;51.730;11.110;2023-07-31T07:38:26;4.88;;;3.22;;
33738;SDS011;20063;51.730;11.110;2023-07-31T07:40:52;7.35;;;4.13;;
33738;SDS011;20063;51.730;11.110;2023-07-31T07:43:18;11.35;;;3.67;;
33738;SDS011;20063;51.730;11.110;2023-07-31T07:45:44;7.72;;;3.10;;
33738;SDS011;20063;51.730;11.110;2023-07-31T07:48:09;6.47;;;3.40;;
33738;SDS011;20063;51.730;11.110;2023-07-31T07:50:35;10.02;;;3.55;;
33738;SDS011;20063;51.730;11.110;2023-07-31T07:53:03;9.02;;;3.72;;
33738;SDS011;20063;51.730;11.110;2023-07-31T07:55:28;7.03;;;3.60;;
33738;SDS011;20063;51.730;11.110;2023-07-31T07:57:54;10.02;;;3.45;;
33738;SDS011;20063;51.730;11.110;2023-07-31T08:00:19;7.75;;;3.45;;
33738;SDS011;20063;51.730;11.110;2023-07-31T08:02:45;12.00;;;3.58;;
33738;SDS011;20063;51.730;11.110;2023-07-31T08:05:11;12.90;;;4.32;;
33738;SDS011;20063;51.730;11.110;2023-07-31T08:07:36;13.75;;;4.72;;
33738;SDS011;20063;51.730;11.110;2023-07-31T08:10:02;8.65;;;4.00;;
33738;SDS011;20063;51.730;11.110;2023-07-31T08:12:27;12.75;;;3.40;;
33738;SDS011;20063;51.730;11.110;2023-07-31T08:14:53;8.30;;;3.50;;
33738;SDS011;20063;51.730;11.110;2023-07-31T08:17:18;14.77;;;4.47;;
33738;SDS011;20063;51.730;11.110;2023-07-31T08:19:47;8.70;;;4.32;;
33738;SDS011;20063;51.730;11.110;2023-07-31T08:22:13;8.43;;;3.47;;
33738;SDS011;20063;51.730;11.110;2023-07-31T08:24:39;8.77;;;3.70;;
33738;SDS011;20063;51.730;11.110;2023-07-31T08:27:05;9.98;;;3.55;;
33738;SDS011;20063;51.730;11.110;2023-07-31T08:29:31;11.20;;;4.20;;
33738;SDS011;20063;51.730;11.110;2023-07-31T08:31:57;9.40;;;3.83;;
33738;SDS011;20063;51.730;11.110;2023-07-31T08:34:22;8.95;;;3.58;;
33738;SDS011;20063;51.730;11.110;2023-07-31T08:36:48;14.90;;;4.15;;
33738;SDS011;20063;51.730;11.110;2023-07-31T08:39:13;10.45;;;3.67;;
33738;SDS011;20063;51.730;11.110;2023-07-31T08:41:39;8.52;;;3.75;;
33738;SDS011;20063;51.730;11.110;2023-07-31T08:44:06;11.23;;;3.25;;
33738;SDS011;20063;51.730;11.110;2023-07-31T08:46:32;10.43;;;3.78;;
33738;SDS011;20063;51.730;11.110;2023-07-31T08:48:59;16.25;;;3.90;;
33738;SDS011;20063;51.730;11.110;2023-07-31T08:51:25;5.95;;;2.95;;
33738;SDS011;20063;51.730;11.110;2023-07-31T08:53:52;6.68;;;2.90;;
33738;SDS011;20063;51.730;11.110;2023-07-31T08:56:18;8.30;;;2.75;;
33738;SDS011;20063;51.730;11.110;2023-07-31T08:58:45;5.60;;;3.20;;
33738;SDS011;20063;51.730;11.110;2023-07-31T09:01:12;12.65;;;2.92;;
33738;SDS011;20063;51.730;11.110;2023-07-31T09:03:39;5.85;;;2.20;;
33738;SDS011;20063;51.730;11.110;2023-07-31T09:06:06;6.72;;;2.50;;
33738;SDS011;20063;51.730;11.110;2023-07-31T09:08:32;4.50;;;2.15;;
33738;SDS011;20063;51.730;11.110;2023-07-31T09:10:59;3.50;;;2.22;;
33738;SDS011;20063;51.730;11.110;2023-07-31T09:13:28;5.40;;;2.40;;
33738;SDS011;20063;51.730;11.110;2023-07-31T09:15:55;5.72;;;2.00;;
33738;SDS011;20063;51.730;11.110;2023-07-31T09:18:20;3.83;;;1.58;;
33738;SDS011;20063;51.730;11.110;2023-07-31T09:21:00;3.92;;;1.67;;
33738;SDS011;20063;51.730;11.110;2023-07-31T09:23:42;4.00;;;1.63;;
33738;SDS011;20063;51.730;11.110;2023-07-31T09:26:09;3.00;;;1.75;;
33738;SDS011;20063;51.730;11.110;2023-07-31T09:28:36;2.83;;;1.50;;
33738;SDS011;20063;51.730;11.110;2023-07-31T09:31:02;2.83;;;1.73;;
33738;SDS011;20063;51.730;11.110;2023-07-31T09:33:28;3.92;;;1.90;;
33738;SDS011;20063;51.730;11.110;2023-07-31T09:35:53;4.22;;;2.00;;
33738;SDS011;20063;51.730;11.110;2023-07-31T09:38:19;4.70;;;2.15;;
33738;SDS011;20063;51.730;11.110;2023-07-31T09:40:48;9.55;;;2.65;;
33738;SDS011;20063;51.730;11.110;2023-07-31T09:43:18;6.82;;;2.88;;
33738;SDS011;20063;51.730;11.110;2023-07-31T09:45:45;3.25;;;2.47;;
33738;SDS011;20063;51.730;11.110;2023-07-31T09:48:12;4.60;;;2.40;;
33738;SDS011;20063;51.730;11.110;2023-07-31T09:50:42;6.65;;;3.03;;
33738;SDS011;20063;51.730;11.110;2023-07-31T09:53:09;7.88;;;2.58;;
33738;SDS011;20063;51.730;11.110;2023-07-31T09:55:35;4.65;;;2.88;;
33738;SDS011;20063;51.730;11.110;2023-07-31T09:58:06;8.82;;;3.83;;
33738;SDS011;20063;51.730;11.110;2023-07-31T10:00:33;6.00;;;3.28;;
33738;SDS011;20063;51.730;11.110;2023-07-31T10:02:59;9.88;;;3.47;;
33738;SDS011;20063;51.730;11.110;2023-07-31T10:05:42;8.52;;;3.83;;
33738;SDS011;20063;51.730;11.110;2023-07-31T10:08:14;7.47;;;3.90;;
33738;SDS011;20063;51.730;11.110;2023-07-31T10:10:41;6.65;;;3.47;;
33738;SDS011;20063;51.730;11.110;2023-07-31T10:13:08;9.02;;;3.65;;
33738;SDS011;20063;51.730;11.110;2023-07-31T10:15:35;6.95;;;3.58;;
33738;SDS011;20063;51.730;11.110;2023-07-31T10:18:01;9.80;;;4.32;;
33738;SDS011;20063;51.730;11.110;2023-07-31T10:20:27;10.45;;;3.40;;
33738;SDS011;20063;51.730;11.110;2023-07-31T10:22:54;9.90;;;3.80;;
33738;SDS011;20063;51.730;11.110;2023-07-31T10:25:21;5.95;;;3.72;;
33738;SDS011;20063;51.730;11.110;2023-07-31T10:27:47;10.07;;;3.92;;
33738;SDS011;20063;51.730;11.110;2023-07-31T10:30:15;10.25;;;3.78;;
33738;SDS011;20063;51.730;11.110;2023-07-31T10:32:43;8.00;;;3.85;;
33738;SDS011;20063;51.730;11.110;2023-07-31T10:35:10;12.35;;;4.10;;
33738;SDS011;20063;51.730;11.110;2023-07-31T10:37:37;9.13;;;3.90;;
33738;SDS011;20063;51.730;11.110;2023-07-31T10:40:17;8.73;;;3.45;;
33738;SDS011;20063;51.730;11.110;2023-07-31T10:45:34;6.38;;;3.03;;
33738;SDS011;20063;51.730;11.110;2023-07-31T10:48:04;8.63;;;3.65;;
33738;SDS011;20063;51.730;11.110;2023-07-31T10:50:31;5.95;;;3.25;;
33738;SDS011;20063;51.730;11.110;2023-07-31T10:53:30;8.73;;;3.38;;
33738;SDS011;20063;51.730;11.110;2023-07-31T10:56:00;7.50;;;3.53;;
33738;SDS011;20063;51.730;11.110;2023-07-31T10:58:28;7.65;;;3.60;;
33738;SDS011;20063;51.730;11.110;2023-07-31T11:00:58;5.70;;;3.13;;
33738;SDS011;20063;51.730;11.110;2023-07-31T11:03:26;5.85;;;3.17;;
33738;SDS011;20063;51.730;11.110;2023-07-31T11:06:09;7.40;;;3.90;;
33738;SDS011;20063;51.730;11.110;2023-07-31T11:08:38;4.97;;;3.00;;
33738;SDS011;20063;51.730;11.110;2023-07-31T11:11:08;7.35;;;3.10;;
33738;SDS011;20063;51.730;11.110;2023-07-31T11:16:11;6.65;;;3.38;;
33738;SDS011;20063;51.730;11.110;2023-07-31T11:18:40;8.85;;;3.85;;
33738;SDS011;20063;51.730;11.110;2023-07-31T11:21:13;6.15;;;3.03;;
33738;SDS011;20063;51.730;11.110;2023-07-31T11:23:39;7.45;;;3.50;;
33738;SDS011;20063;51.730;11.110;2023-07-31T11:26:06;6.05;;;3.20;;
33738;SDS011;20063;51.730;11.110;2023-07-31T11:28:33;13.25;;;3.63;;
33738;SDS011;20063;51.730;11.110;2023-07-31T11:31:01;5.55;;;3.20;;
33738;SDS011;20063;51.730;11.110;2023-07-31T11:33:27;5.38;;;3.63;;
33738;SDS011;20063;51.730;11.110;2023-07-31T11:35:53;4.00;;;3.10;;
33738;SDS011;20063;51.730;11.110;2023-07-31T11:38:25;8.50;;;3.88;;
33738;SDS011;20063;51.730;11.110;2023-07-31T11:41:02;6.03;;;2.78;;
33738;SDS011;20063;51.730;11.110;2023-07-31T11:43:29;6.50;;;3.35;;
33738;SDS011;20063;51.730;11.110;2023-07-31T11:45:56;7.60;;;3.78;;
33738;SDS011;20063;51.730;11.110;2023-07-31T11:48:29;5.15;;;3.38;;
33738;SDS011;20063;51.730;11.110;2023-07-31T11:51:01;7.43;;;2.85;;
33738;SDS011;20063;51.730;11.110;2023-07-31T11:53:30;7.38;;;3.30;;
33738;SDS011;20063;51.730;11.110;2023-07-31T11:56:03;9.90;;;3.53;;
33738;SDS011;20063;51.730;11.110;2023-07-31T11:58:31;6.18;;;3.65;;
33738;SDS011;20063;51.730;11.110;2023-07-31T12:01:00;8.48;;;3.75;;
33738;SDS011;20063;51.730;11.110;2023-07-31T12:03:26;13.63;;;3.78;;
33738;SDS011;20063;51.730;11.110;2023-07-31T12:05:53;7.50;;;3.33;;
33738;SDS011;20063;51.730;11.110;2023-07-31T12:08:20;10.05;;;3.72;;
33738;SDS011;20063;51.730;11.110;2023-07-31T12:10:47;8.40;;;4.38;;
33738;SDS011;20063;51.730;11.110;2023-07-31T12:13:22;8.98;;;4.40;;
33738;SDS011;20063;51.730;11.110;2023-07-31T12:15:53;11.27;;;3.97;;
33738;SDS011;20063;51.730;11.110;2023-07-31T12:18:21;11.10;;;3.60;;
33738;SDS011;20063;51.730;11.110;2023-07-31T12:20:58;6.07;;;3.63;;
33738;SDS011;20063;51.730;11.110;2023-07-31T12:23:27;7.85;;;3.40;;
33738;SDS011;20063;51.730;11.110;2023-07-31T12:26:01;5.63;;;3.28;;
33738;SDS011;20063;51.730;11.110;2023-07-31T12:28:26;10.70;;;3.35;;
33738;SDS011;20063;51.730;11.110;2023-07-31T12:30:56;7.40;;;3.63;;
33738;SDS011;20063;51.730;11.110;2023-07-31T12:33:24;5.50;;;3.42;;
33738;SDS011;20063;51.730;11.110;2023-07-31T12:35:55;11.20;;;3.70;;
33738;SDS011;20063;51.730;11.110;2023-07-31T12:38:20;8.98;;;3.63;;
33738;SDS011;20063;51.730;11.110;2023-07-31T12:40:46;11.95;;;3.78;;
33738;SDS011;20063;51.730;11.110;2023-07-31T12:43:13;7.45;;;3.25;;
33738;SDS011;20063;51.730;11.110;2023-07-31T12:45:38;9.02;;;3.70;;
33738;SDS011;20063;51.730;11.110;2023-07-31T12:48:04;10.23;;;3.30;;
33738;SDS011;20063;51.730;11.110;2023-07-31T12:50:30;5.97;;;3.13;;
33738;SDS011;20063;51.730;11.110;2023-07-31T12:52:56;9.45;;;3.50;;
33738;SDS011;20063;51.730;11.110;2023-07-31T12:55:22;8.18;;;3.08;;
33738;SDS011;20063;51.730;11.110;2023-07-31T12:57:48;6.60;;;3.20;;
33738;SDS011;20063;51.730;11.110;2023-07-31T13:00:17;6.32;;;3.40;;
33738;SDS011;20063;51.730;11.110;2023-07-31T13:02:48;9.07;;;4.15;;
33738;SDS011;20063;51.730;11.110;2023-07-31T13:05:14;8.10;;;3.63;;
33738;SDS011;20063;51.730;11.110;2023-07-31T13:07:40;18.80;;;4.35;;
33738;SDS011;20063;51.730;11.110;2023-07-31T13:10:06;12.18;;;3.95;;
33738;SDS011;20063;51.730;11.110;2023-07-31T13:12:32;7.65;;;2.95;;
33738;SDS011;20063;51.730;11.110;2023-07-31T13:14:58;11.55;;;3.47;;
33738;SDS011;20063;51.730;11.110;2023-07-31T13:17:24;5.43;;;3.00;;
33738;SDS011;20063;51.730;11.110;2023-07-31T13:19:49;7.43;;;3.15;;
33738;SDS011;20063;51.730;11.110;2023-07-31T13:22:15;16.95;;;4.60;;
33738;SDS011;20063;51.730;11.110;2023-07-31T13:24:41;11.63;;;3.00;;
33738;SDS011;20063;51.730;11.110;2023-07-31T13:27:06;12.38;;;3.20;;
33738;SDS011;20063;51.730;11.110;2023-07-31T13:29:32;9.30;;;3.05;;
33738;SDS011;20063;51.730;11.110;2023-07-31T13:31:57;8.07;;;3.08;;
33738;SDS011;20063;51.730;11.110;2023-07-31T13:34:23;8.75;;;2.95;;
33738;SDS011;20063;51.730;11.110;2023-07-31T13:36:49;6.18;;;3.22;;
33738;SDS011;20063;51.730;11.110;2023-07-31T13:39:15;13.23;;;3.45;;
33738;SDS011;20063;51.730;11.110;2023-07-31T13:41:43;8.57;;;3.10;;
33738;SDS011;20063;51.730;11.110;2023-07-31T13:44:09;7.00;;;3.00;;
33738;SDS011;20063;51.730;11.110;2023-07-31T13:46:34;4.72;;;2.60;;
33738;SDS011;20063;51.730;11.110;2023-07-31T13:49:03;12.65;;;3.05;;
33738;SDS011;20063;51.730;11.110;2023-07-31T13:51:28;11.43;;;2.80;;
33738;SDS011;20063;51.730;11.110;2023-07-31T13:53:56;5.47;;;2.50;;
33738;SDS011;20063;51.730;11.110;2023-07-31T13:56:22;3.92;;;2.50;;
33738;SDS011;20063;51.730;11.110;2023-07-31T13:58:48;5.63;;;2.78;;
33738;SDS011;20063;51.730;11.110;2023-07-31T14:01:16;106.97;;;6.85;;
33738;SDS011;20063;51.730;11.110;2023-07-31T14:03:47;11.60;;;2.58;;
33738;SDS011;20063;51.730;11.110;2023-07-31T14:06:13;6.05;;;2.95;;
33738;SDS011;20063;51.730;11.110;2023-07-31T14:08:39;12.23;;;2.70;;
33738;SDS011;20063;51.730;11.110;2023-07-31T14:11:04;7.78;;;3.30;;
33738;SDS011;20063;51.730;11.110;2023-07-31T14:13:30;7.57;;;3.35;;
33738;SDS011;20063;51.730;11.110;2023-07-31T14:15:55;6.00;;;3.33;;
33738;SDS011;20063;51.730;11.110;2023-07-31T14:18:21;7.25;;;3.08;;
33738;SDS011;20063;51.730;11.110;2023-07-31T14:20:47;4.18;;;2.88;;
33738;SDS011;20063;51.730;11.110;2023-07-31T14:23:12;7.32;;;2.85;;
33738;SDS011;20063;51.730;11.110;2023-07-31T14:25:38;6.25;;;2.97;;
33738;SDS011;20063;51.730;11.110;2023-07-31T14:28:03;7.72;;;2.97;;
33738;SDS011;20063;51.730;11.110;2023-07-31T14:30:29;5.22;;;3.13;;
33738;SDS011;20063;51.730;11.110;2023-07-31T14:32:55;5.40;;;2.70;;
33738;SDS011;20063;51.730;11.110;2023-07-31T14:35:21;8.48;;;3.38;;
33738;SDS011;20063;51.730;11.110;2023-07-31T14:37:46;11.73;;;4.38;;
33738;SDS011;20063;51.730;11.110;2023-07-31T14:40:12;4.45;;;2.97;;
33738;SDS011;20063;51.730;11.110;2023-07-31T14:42:38;5.38;;;3.05;;
33738;SDS011;20063;51.730;11.110;2023-07-31T14:45:08;8.18;;;3.33;;